sensor_id;sensor_type;location;lat;lon;timestamp;temperature;humidity
15700;DHT22;7950;42.744;23.174;2022-12-18T00:00:45;5.90;99.90
15700;DHT22;7950;42.744;23.174;2022-12-18T00:03:14;5.80;99.90
15700;DHT22;7950;42.744;23.174;2022-12-18T00:05:47;5.80;99.90
15700;DHT22;7950;42.744;23.174;2022-12-18T00:08:16;5.70;99.90
15700;DHT22;7950;42.744;23.174;2022-12-18T00:10:45;5.70;99.90
15700;DHT22;7950;42.744;23.174;2022-12-18T00:13:13;5.70;99.90
15700;DHT22;7950;42.744;23.174;2022-12-18T00:15:43;5.70;99.90
15700;DHT22;7950;42.744;23.174;2022-12-18T00:18:12;5.70;99.90
15700;DHT22;7950;42.744;23.174;2022-12-18T00:20:46;5.70;99.90
15700;DHT22;7950;42.744;23.174;2022-12-18T00:23:15;5.70;99.90
15700;DHT22;7950;42.744;23.174;2022-12-18T00:25:43;5.60;99.90
15700;DHT22;7950;42.744;23.174;2022-12-18T00:28:11;5.60;99.90
15700;DHT22;7950;42.744;23.174;2022-12-18T00:30:44;5.50;99.90
15700;DHT22;7950;42.744;23.174;2022-12-18T00:33:13;5.50;99.90
15700;DHT22;7950;42.744;23.174;2022-12-18T00:35:45;5.50;99.90
15700;DHT22;7950;42.744;23.174;2022-12-18T00:38:13;5.50;99.90
15700;DHT22;7950;42.744;23.174;2022-12-18T00:40:42;5.40;99.90
15700;DHT22;7950;42.744;23.174;2022-12-18T00:43:10;5.40;99.90
15700;DHT22;7950;42.744;23.174;2022-12-18T00:46:06;5.40;99.90
15700;DHT22;7950;42.744;23.174;2022-12-18T00:48:53;5.40;99.90
15700;DHT22;7950;42.744;23.174;2022-12-18T00:51:21;5.30;99.90
15700;DHT22;7950;42.744;23.174;2022-12-18T00:53:50;5.30;99.90
15700;DHT22;7950;42.744;23.174;2022-12-18T00:56:19;5.30;99.90
15700;DHT22;7950;42.744;23.174;2022-12-18T00:58:47;5.30;99.90
15700;DHT22;7950;42.744;23.174;2022-12-18T01:01:17;5.20;99.90
15700;DHT22;7950;42.744;23.174;2022-12-18T01:03:46;5.20;99.90
15700;DHT22;7950;42.744;23.174;2022-12-18T01:06:15;5.20;99.90
15700;DHT22;7950;42.744;23.174;2022-12-18T01:08:44;5.10;99.90
15700;DHT22;7950;42.744;23.174;2022-12-18T01:11:15;5.10;99.90
15700;DHT22;7950;42.744;23.174;2022-12-18T01:13:44;5.10;99.90
15700;DHT22;7950;42.744;23.174;2022-12-18T01:16:14;5.10;99.90
15700;DHT22;7950;42.744;23.174;2022-12-18T01:18:44;5.10;99.90
15700;DHT22;7950;42.744;23.174;2022-12-18T01:21:15;5.10;99.90
15700;DHT22;7950;42.744;23.174;2022-12-18T01:23:43;5.10;99.90
15700;DHT22;7950;42.744;23.174;2022-12-18T01:26:37;5.10;99.90
15700;DHT22;7950;42.744;23.174;2022-12-18T01:29:06;5.00;99.90
15700;DHT22;7950;42.744;23.174;2022-12-18T01:31:34;5.10;99.90
15700;DHT22;7950;42.744;23.174;2022-12-18T01:34:05;5.00;99.90
15700;DHT22;7950;42.744;23.174;2022-12-18T01:36:35;5.00;99.90
15700;DHT22;7950;42.744;23.174;2022-12-18T01:39:07;5.00;99.90
15700;DHT22;7950;42.744;23.174;2022-12-18T01:41:37;5.00;99.90
15700;DHT22;7950;42.744;23.174;2022-12-18T01:44:53;5.10;99.90
15700;DHT22;7950;42.744;23.174;2022-12-18T01:47:26;5.10;99.90
15700;DHT22;7950;42.744;23.174;2022-12-18T01:49:57;5.10;99.90
15700;DHT22;7950;42.744;23.174;2022-12-18T01:52:29;5.10;99.90
15700;DHT22;7950;42.744;23.174;2022-12-18T01:54:59;5.10;99.90
15700;DHT22;7950;42.744;23.174;2022-12-18T01:57:28;5.10;99.90
15700;DHT22;7950;42.744;23.174;2022-12-18T01:59:59;5.10;99.90
15700;DHT22;7950;42.744;23.174;2022-12-18T02:02:29;5.10;99.90
15700;DHT22;7950;42.744;23.174;2022-12-18T02:05:00;5.00;99.90
15700;DHT22;7950;42.744;23.174;2022-12-18T02:07:38;5.00;99.90
15700;DHT22;7950;42.744;23.174;2022-12-18T02:10:15;5.00;99.90
15700;DHT22;7950;42.744;23.174;2022-12-18T02:12:49;4.90;99.90
15700;DHT22;7950;42.744;23.174;2022-12-18T02:15:33;4.90;99.90
15700;DHT22;7950;42.744;23.174;2022-12-18T02:18:06;4.80;99.90
15700;DHT22;7950;42.744;23.174;2022-12-18T02:20:43;4.80;99.90
15700;DHT22;7950;42.744;23.174;2022-12-18T02:23:24;4.80;99.90
15700;DHT22;7950;42.744;23.174;2022-12-18T02:26:17;4.80;99.90
15700;DHT22;7950;42.744;23.174;2022-12-18T02:28:51;4.90;99.90
15700;DHT22;7950;42.744;23.174;2022-12-18T02:31:23;4.90;99.90
15700;DHT22;7950;42.744;23.174;2022-12-18T02:33:55;4.90;99.90
15700;DHT22;7950;42.744;23.174;2022-12-18T02:36:25;4.90;99.90
15700;DHT22;7950;42.744;23.174;2022-12-18T02:39:05;4.80;99.90
15700;DHT22;7950;42.744;23.174;2022-12-18T02:41:37;4.80;99.90
15700;DHT22;7950;42.744;23.174;2022-12-18T02:44:08;4.70;99.90
15700;DHT22;7950;42.744;23.174;2022-12-18T02:46:39;4.70;99.90
15700;DHT22;7950;42.744;23.174;2022-12-18T02:49:21;4.70;99.90
15700;DHT22;7950;42.744;23.174;2022-12-18T02:51:54;4.80;99.90
15700;DHT22;7950;42.744;23.174;2022-12-18T02:54:37;4.70;99.90
15700;DHT22;7950;42.744;23.174;2022-12-18T02:57:16;4.70;99.90
15700;DHT22;7950;42.744;23.174;2022-12-18T02:59:51;4.70;99.90
15700;DHT22;7950;42.744;23.174;2022-12-18T03:02:26;4.70;99.90
15700;DHT22;7950;42.744;23.174;2022-12-18T03:05:02;4.70;99.90
15700;DHT22;7950;42.744;23.174;2022-12-18T03:07:39;4.70;99.90
15700;DHT22;7950;42.744;23.174;2022-12-18T03:10:35;4.70;99.90
15700;DHT22;7950;42.744;23.174;2022-12-18T03:13:10;4.70;99.90
15700;DHT22;7950;42.744;23.174;2022-12-18T03:15:44;4.70;99.90
15700;DHT22;7950;42.744;23.174;2022-12-18T03:18:17;4.70;99.90
15700;DHT22;7950;42.744;23.174;2022-12-18T03:20:51;4.70;99.90
15700;DHT22;7950;42.744;23.174;2022-12-18T03:23:27;4.70;99.90
15700;DHT22;7950;42.744;23.174;2022-12-18T03:26:00;4.60;99.90
15700;DHT22;7950;42.744;23.174;2022-12-18T03:28:38;4.60;99.90
15700;DHT22;7950;42.744;23.174;2022-12-18T03:31:09;4.60;99.90
15700;DHT22;7950;42.744;23.174;2022-12-18T03:33:45;4.60;99.90
15700;DHT22;7950;42.744;23.174;2022-12-18T03:36:15;4.60;99.90
15700;DHT22;7950;42.744;23.174;2022-12-18T03:39:08;4.60;99.90
15700;DHT22;7950;42.744;23.174;2022-12-18T03:41:43;4.60;99.90
15700;DHT22;7950;42.744;23.174;2022-12-18T03:44:16;4.60;99.90
15700;DHT22;7950;42.744;23.174;2022-12-18T03:46:54;4.50;99.90
15700;DHT22;7950;42.744;23.174;2022-12-18T03:49:36;4.60;99.90
15700;DHT22;7950;42.744;23.174;2022-12-18T03:52:10;4.60;99.90
15700;DHT22;7950;42.744;23.174;2022-12-18T03:54:41;4.50;99.90
15700;DHT22;7950;42.744;23.174;2022-12-18T03:57:41;4.50;99.90
15700;DHT22;7950;42.744;23.174;2022-12-18T04:00:15;4.40;99.90
15700;DHT22;7950;42.744;23.174;2022-12-18T04:02:46;4.40;99.90
15700;DHT22;7950;42.744;23.174;2022-12-18T04:05:17;4.40;99.90
15700;DHT22;7950;42.744;23.174;2022-12-18T04:07:48;4.40;99.90
15700;DHT22;7950;42.744;23.174;2022-12-18T04:10:17;4.40;99.90
15700;DHT22;7950;42.744;23.174;2022-12-18T04:12:46;4.40;99.90
15700;DHT22;7950;42.744;23.174;2022-12-18T04:15:15;4.40;99.90
15700;DHT22;7950;42.744;23.174;2022-12-18T04:17:48;4.40;99.90
15700;DHT22;7950;42.744;23.174;2022-12-18T04:20:17;4.40;99.90
15700;DHT22;7950;42.744;23.174;2022-12-18T04:22:45;4.30;99.90
15700;DHT22;7950;42.744;23.174;2022-12-18T04:25:14;4.30;99.90
15700;DHT22;7950;42.744;23.174;2022-12-18T04:27:43;4.20;99.90
15700;DHT22;7950;42.744;23.174;2022-12-18T04:30:12;4.20;99.90
15700;DHT22;7950;42.744;23.174;2022-12-18T04:32:42;4.20;99.90
15700;DHT22;7950;42.744;23.174;2022-12-18T04:35:17;4.20;99.90
15700;DHT22;7950;42.744;23.174;2022-12-18T04:37:46;4.10;99.90
15700;DHT22;7950;42.744;23.174;2022-12-18T04:40:14;4.10;99.90
15700;DHT22;7950;42.744;23.174;2022-12-18T04:43:03;4.00;99.90
15700;DHT22;7950;42.744;23.174;2022-12-18T04:45:32;4.00;99.90
15700;DHT22;7950;42.744;23.174;2022-12-18T04:48:03;3.90;99.90
15700;DHT22;7950;42.744;23.174;2022-12-18T04:50:44;3.90;99.90
15700;DHT22;7950;42.744;23.174;2022-12-18T04:53:13;3.90;99.90
15700;DHT22;7950;42.744;23.174;2022-12-18T04:55:41;3.90;99.90
15700;DHT22;7950;42.744;23.174;2022-12-18T04:58:10;3.90;99.90
15700;DHT22;7950;42.744;23.174;2022-12-18T05:00:38;3.90;99.90
15700;DHT22;7950;42.744;23.174;2022-12-18T05:03:08;3.80;99.90
15700;DHT22;7950;42.744;23.174;2022-12-18T05:05:37;3.90;99.90
15700;DHT22;7950;42.744;23.174;2022-12-18T05:08:06;3.90;99.90
15700;DHT22;7950;42.744;23.174;2022-12-18T05:10:35;3.90;99.90
15700;DHT22;7950;42.744;23.174;2022-12-18T05:13:04;4.00;99.90
15700;DHT22;7950;42.744;23.174;2022-12-18T05:15:33;4.00;99.90
15700;DHT22;7950;42.744;23.174;2022-12-18T05:18:02;4.00;99.90
15700;DHT22;7950;42.744;23.174;2022-12-18T05:20:33;3.90;99.90
15700;DHT22;7950;42.744;23.174;2022-12-18T05:23:01;3.90;99.90
15700;DHT22;7950;42.744;23.174;2022-12-18T05:25:30;3.90;99.90
15700;DHT22;7950;42.744;23.174;2022-12-18T05:27:58;3.90;99.90
15700;DHT22;7950;42.744;23.174;2022-12-18T05:30:27;3.90;99.90
15700;DHT22;7950;42.744;23.174;2022-12-18T05:32:55;3.90;99.90
15700;DHT22;7950;42.744;23.174;2022-12-18T05:35:24;3.90;99.90
15700;DHT22;7950;42.744;23.174;2022-12-18T05:37:54;3.90;99.90
15700;DHT22;7950;42.744;23.174;2022-12-18T05:40:23;3.80;99.90
15700;DHT22;7950;42.744;23.174;2022-12-18T05:42:53;3.90;99.90
15700;DHT22;7950;42.744;23.174;2022-12-18T05:45:21;3.80;99.90
15700;DHT22;7950;42.744;23.174;2022-12-18T05:47:50;3.90;99.90
15700;DHT22;7950;42.744;23.174;2022-12-18T05:50:19;3.80;99.90
15700;DHT22;7950;42.744;23.174;2022-12-18T05:52:48;3.80;99.90
15700;DHT22;7950;42.744;23.174;2022-12-18T05:55:18;3.80;99.90
15700;DHT22;7950;42.744;23.174;2022-12-18T05:57:46;3.80;99.90
15700;DHT22;7950;42.744;23.174;2022-12-18T06:00:16;3.90;99.90
15700;DHT22;7950;42.744;23.174;2022-12-18T06:02:46;3.80;99.90
15700;DHT22;7950;42.744;23.174;2022-12-18T06:05:15;3.80;99.90
15700;DHT22;7950;42.744;23.174;2022-12-18T06:07:43;3.80;99.90
15700;DHT22;7950;42.744;23.174;2022-12-18T06:10:12;3.80;99.90
15700;DHT22;7950;42.744;23.174;2022-12-18T06:12:42;3.90;99.90
15700;DHT22;7950;42.744;23.174;2022-12-18T06:15:10;3.90;99.90
15700;DHT22;7950;42.744;23.174;2022-12-18T06:17:40;3.90;99.90
15700;DHT22;7950;42.744;23.174;2022-12-18T06:20:13;4.00;99.90
15700;DHT22;7950;42.744;23.174;2022-12-18T06:22:41;4.00;99.90
15700;DHT22;7950;42.744;23.174;2022-12-18T06:25:10;4.10;99.90
15700;DHT22;7950;42.744;23.174;2022-12-18T06:27:38;4.00;99.90
15700;DHT22;7950;42.744;23.174;2022-12-18T06:30:10;4.00;99.90
15700;DHT22;7950;42.744;23.174;2022-12-18T06:32:39;4.00;99.90
15700;DHT22;7950;42.744;23.174;2022-12-18T06:35:08;3.90;99.90
15700;DHT22;7950;42.744;23.174;2022-12-18T06:37:36;3.90;99.90
15700;DHT22;7950;42.744;23.174;2022-12-18T06:40:06;4.00;99.90
15700;DHT22;7950;42.744;23.174;2022-12-18T06:42:36;4.00;99.90
15700;DHT22;7950;42.744;23.174;2022-12-18T06:45:05;4.00;99.90
15700;DHT22;7950;42.744;23.174;2022-12-18T06:47:34;4.00;99.90
15700;DHT22;7950;42.744;23.174;2022-12-18T06:50:03;4.00;99.90
15700;DHT22;7950;42.744;23.174;2022-12-18T06:52:32;4.00;99.90
15700;DHT22;7950;42.744;23.174;2022-12-18T06:55:02;3.90;99.90
15700;DHT22;7950;42.744;23.174;2022-12-18T06:57:30;3.90;99.90
15700;DHT22;7950;42.744;23.174;2022-12-18T06:59:59;3.90;99.90
15700;DHT22;7950;42.744;23.174;2022-12-18T07:02:40;3.80;99.90
15700;DHT22;7950;42.744;23.174;2022-12-18T07:05:09;3.90;99.90
15700;DHT22;7950;42.744;23.174;2022-12-18T07:07:37;3.80;99.90
15700;DHT22;7950;42.744;23.174;2022-12-18T07:10:06;3.70;99.90
15700;DHT22;7950;42.744;23.174;2022-12-18T07:12:34;3.70;99.90
15700;DHT22;7950;42.744;23.174;2022-12-18T07:15:04;3.70;99.90
15700;DHT22;7950;42.744;23.174;2022-12-18T07:17:33;3.70;99.90
15700;DHT22;7950;42.744;23.174;2022-12-18T07:20:03;3.70;99.90
15700;DHT22;7950;42.744;23.174;2022-12-18T07:22:49;3.70;99.90
15700;DHT22;7950;42.744;23.174;2022-12-18T07:25:22;3.70;99.90
15700;DHT22;7950;42.744;23.174;2022-12-18T07:27:50;3.70;99.90
15700;DHT22;7950;42.744;23.174;2022-12-18T07:30:19;3.70;99.90
15700;DHT22;7950;42.744;23.174;2022-12-18T07:32:48;3.70;99.90
15700;DHT22;7950;42.744;23.174;2022-12-18T07:35:17;3.80;99.90
15700;DHT22;7950;42.744;23.174;2022-12-18T07:37:51;3.80;99.90
15700;DHT22;7950;42.744;23.174;2022-12-18T07:40:19;3.90;99.90
15700;DHT22;7950;42.744;23.174;2022-12-18T07:43:12;3.90;99.90
15700;DHT22;7950;42.744;23.174;2022-12-18T07:45:42;3.80;99.90
15700;DHT22;7950;42.744;23.174;2022-12-18T07:48:11;3.80;99.90
15700;DHT22;7950;42.744;23.174;2022-12-18T07:53:48;3.90;99.90
15700;DHT22;7950;42.744;23.174;2022-12-18T07:56:24;3.90;99.90
15700;DHT22;7950;42.744;23.174;2022-12-18T07:58:56;3.80;99.90
15700;DHT22;7950;42.744;23.174;2022-12-18T08:01:24;3.80;99.90
15700;DHT22;7950;42.744;23.174;2022-12-18T08:03:53;3.80;99.90
15700;DHT22;7950;42.744;23.174;2022-12-18T08:06:22;3.80;99.90
15700;DHT22;7950;42.744;23.174;2022-12-18T08:08:53;3.80;99.90
15700;DHT22;7950;42.744;23.174;2022-12-18T08:11:22;3.70;99.90
15700;DHT22;7950;42.744;23.174;2022-12-18T08:13:51;3.70;99.90
15700;DHT22;7950;42.744;23.174;2022-12-18T08:16:20;3.70;99.90
15700;DHT22;7950;42.744;23.174;2022-12-18T08:18:48;3.80;99.90
15700;DHT22;7950;42.744;23.174;2022-12-18T08:21:19;3.80;99.90
15700;DHT22;7950;42.744;23.174;2022-12-18T08:23:50;3.90;99.90
15700;DHT22;7950;42.744;23.174;2022-12-18T08:26:21;3.80;99.90
15700;DHT22;7950;42.744;23.174;2022-12-18T08:28:51;3.80;99.90
15700;DHT22;7950;42.744;23.174;2022-12-18T08:31:21;3.80;99.90
15700;DHT22;7950;42.744;23.174;2022-12-18T08:33:51;3.80;99.90
15700;DHT22;7950;42.744;23.174;2022-12-18T08:36:21;3.80;99.90
15700;DHT22;7950;42.744;23.174;2022-12-18T08:38:54;3.90;99.90
15700;DHT22;7950;42.744;23.174;2022-12-18T08:41:24;3.90;99.90
15700;DHT22;7950;42.744;23.174;2022-12-18T08:43:52;3.90;99.90
15700;DHT22;7950;42.744;23.174;2022-12-18T08:46:39;3.90;99.90
15700;DHT22;7950;42.744;23.174;2022-12-18T08:49:09;4.00;99.90
15700;DHT22;7950;42.744;23.174;2022-12-18T08:51:38;4.00;99.90
15700;DHT22;7950;42.744;23.174;2022-12-18T08:54:09;4.00;99.90
15700;DHT22;7950;42.744;23.174;2022-12-18T08:56:40;4.00;99.90
15700;DHT22;7950;42.744;23.174;2022-12-18T08:59:08;4.00;99.90
15700;DHT22;7950;42.744;23.174;2022-12-18T09:02:15;4.00;99.90
15700;DHT22;7950;42.744;23.174;2022-12-18T09:04:50;4.10;99.90
15700;DHT22;7950;42.744;23.174;2022-12-18T09:07:23;4.10;99.90
15700;DHT22;7950;42.744;23.174;2022-12-18T09:09:51;4.10;99.90
15700;DHT22;7950;42.744;23.174;2022-12-18T09:12:21;4.10;99.90
15700;DHT22;7950;42.744;23.174;2022-12-18T09:14:50;4.10;99.90
15700;DHT22;7950;42.744;23.174;2022-12-18T09:17:18;4.10;99.90
15700;DHT22;7950;42.744;23.174;2022-12-18T09:19:46;4.10;99.90
15700;DHT22;7950;42.744;23.174;2022-12-18T09:22:15;4.20;99.90
15700;DHT22;7950;42.744;23.174;2022-12-18T09:24:43;4.20;99.90
15700;DHT22;7950;42.744;23.174;2022-12-18T09:27:11;4.20;99.90
15700;DHT22;7950;42.744;23.174;2022-12-18T09:29:41;4.20;99.90
15700;DHT22;7950;42.744;23.174;2022-12-18T09:32:09;4.10;99.90
15700;DHT22;7950;42.744;23.174;2022-12-18T09:34:44;4.20;99.90
15700;DHT22;7950;42.744;23.174;2022-12-18T09:37:13;4.10;99.90
15700;DHT22;7950;42.744;23.174;2022-12-18T09:39:41;4.10;99.90
15700;DHT22;7950;42.744;23.174;2022-12-18T09:42:20;4.20;99.90
15700;DHT22;7950;42.744;23.174;2022-12-18T09:44:52;4.20;99.90
15700;DHT22;7950;42.744;23.174;2022-12-18T09:47:24;4.20;99.90
15700;DHT22;7950;42.744;23.174;2022-12-18T09:49:58;4.30;99.90
15700;DHT22;7950;42.744;23.174;2022-12-18T09:52:30;4.30;99.90
15700;DHT22;7950;42.744;23.174;2022-12-18T09:55:05;4.30;99.90
15700;DHT22;7950;42.744;23.174;2022-12-18T09:57:40;4.30;99.90
15700;DHT22;7950;42.744;23.174;2022-12-18T10:00:18;4.30;99.90
15700;DHT22;7950;42.744;23.174;2022-12-18T10:02:47;4.20;99.90
15700;DHT22;7950;42.744;23.174;2022-12-18T10:05:32;4.30;99.90
15700;DHT22;7950;42.744;23.174;2022-12-18T10:08:07;4.30;99.90
15700;DHT22;7950;42.744;23.174;2022-12-18T10:10:46;4.30;99.90
15700;DHT22;7950;42.744;23.174;2022-12-18T10:13:24;4.40;99.90
15700;DHT22;7950;42.744;23.174;2022-12-18T10:16:06;4.40;99.90
15700;DHT22;7950;42.744;23.174;2022-12-18T10:21:59;4.50;99.90
15700;DHT22;7950;42.744;23.174;2022-12-18T10:25:00;4.60;99.90
15700;DHT22;7950;42.744;23.174;2022-12-18T10:27:30;4.50;99.90
15700;DHT22;7950;42.744;23.174;2022-12-18T10:30:04;4.60;99.90
15700;DHT22;7950;42.744;23.174;2022-12-18T10:32:35;4.50;99.90
15700;DHT22;7950;42.744;23.174;2022-12-18T10:35:08;4.50;99.90
15700;DHT22;7950;42.744;23.174;2022-12-18T10:37:59;4.50;99.90
15700;DHT22;7950;42.744;23.174;2022-12-18T10:40:28;4.60;99.90
15700;DHT22;7950;42.744;23.174;2022-12-18T10:43:09;4.50;99.90
15700;DHT22;7950;42.744;23.174;2022-12-18T10:45:38;4.50;99.90
15700;DHT22;7950;42.744;23.174;2022-12-18T10:48:19;4.50;99.90
15700;DHT22;7950;42.744;23.174;2022-12-18T10:50:50;4.50;99.90
15700;DHT22;7950;42.744;23.174;2022-12-18T10:54:13;4.50;99.90
15700;DHT22;7950;42.744;23.174;2022-12-18T10:56:42;4.50;99.90
15700;DHT22;7950;42.744;23.174;2022-12-18T10:59:14;4.50;99.90
15700;DHT22;7950;42.744;23.174;2022-12-18T11:01:48;4.50;99.90
15700;DHT22;7950;42.744;23.174;2022-12-18T11:04:20;4.60;99.90
15700;DHT22;7950;42.744;23.174;2022-12-18T11:06:55;4.60;99.90
15700;DHT22;7950;42.744;23.174;2022-12-18T11:09:25;4.60;99.90
15700;DHT22;7950;42.744;23.174;2022-12-18T11:11:56;4.70;99.90
15700;DHT22;7950;42.744;23.174;2022-12-18T11:14:28;4.60;99.90
15700;DHT22;7950;42.744;23.174;2022-12-18T11:16:58;4.70;99.90
15700;DHT22;7950;42.744;23.174;2022-12-18T11:19:54;4.70;99.90
15700;DHT22;7950;42.744;23.174;2022-12-18T11:22:25;4.70;99.90
15700;DHT22;7950;42.744;23.174;2022-12-18T11:24:57;4.70;99.90
15700;DHT22;7950;42.744;23.174;2022-12-18T11:27:51;4.70;99.90
15700;DHT22;7950;42.744;23.174;2022-12-18T11:30:23;4.70;99.90
15700;DHT22;7950;42.744;23.174;2022-12-18T11:32:54;4.80;99.90
15700;DHT22;7950;42.744;23.174;2022-12-18T11:35:34;4.70;99.90
15700;DHT22;7950;42.744;23.174;2022-12-18T11:38:10;4.90;99.90
15700;DHT22;7950;42.744;23.174;2022-12-18T11:40:44;4.90;99.90
15700;DHT22;7950;42.744;23.174;2022-12-18T11:43:16;4.90;99.90
15700;DHT22;7950;42.744;23.174;2022-12-18T11:45:49;4.90;99.90
15700;DHT22;7950;42.744;23.174;2022-12-18T11:48:23;4.90;99.90
15700;DHT22;7950;42.744;23.174;2022-12-18T11:50:56;5.00;99.90
15700;DHT22;7950;42.744;23.174;2022-12-18T11:53:26;5.10;99.90
15700;DHT22;7950;42.744;23.174;2022-12-18T11:56:02;5.10;99.90
15700;DHT22;7950;42.744;23.174;2022-12-18T11:59:01;5.10;99.90
15700;DHT22;7950;42.744;23.174;2022-12-18T12:01:39;5.10;99.90
15700;DHT22;7950;42.744;23.174;2022-12-18T12:07:56;5.20;99.90
15700;DHT22;7950;42.744;23.174;2022-12-18T12:10:42;5.10;99.90
15700;DHT22;7950;42.744;23.174;2022-12-18T12:13:23;5.10;99.90
15700;DHT22;7950;42.744;23.174;2022-12-18T12:16:04;5.10;99.90
15700;DHT22;7950;42.744;23.174;2022-12-18T12:18:46;5.00;99.90
15700;DHT22;7950;42.744;23.174;2022-12-18T12:21:23;5.00;99.90
15700;DHT22;7950;42.744;23.174;2022-12-18T12:24:25;5.00;99.90
15700;DHT22;7950;42.744;23.174;2022-12-18T12:27:03;5.00;99.90
15700;DHT22;7950;42.744;23.174;2022-12-18T12:29:55;5.00;99.90
15700;DHT22;7950;42.744;23.174;2022-12-18T12:32:40;5.00;99.90
15700;DHT22;7950;42.744;23.174;2022-12-18T12:35:19;5.00;99.90
15700;DHT22;7950;42.744;23.174;2022-12-18T12:37:56;5.00;99.90
15700;DHT22;7950;42.744;23.174;2022-12-18T12:40:33;5.00;99.90
15700;DHT22;7950;42.744;23.174;2022-12-18T12:43:28;5.00;99.90
15700;DHT22;7950;42.744;23.174;2022-12-18T12:45:59;4.90;99.90
15700;DHT22;7950;42.744;23.174;2022-12-18T12:48:38;4.90;99.90
15700;DHT22;7950;42.744;23.174;2022-12-18T12:51:14;4.90;99.90
15700;DHT22;7950;42.744;23.174;2022-12-18T12:53:45;4.80;99.90
15700;DHT22;7950;42.744;23.174;2022-12-18T12:56:16;4.80;99.90
15700;DHT22;7950;42.744;23.174;2022-12-18T12:58:55;4.80;99.90
15700;DHT22;7950;42.744;23.174;2022-12-18T13:01:34;4.70;99.90
15700;DHT22;7950;42.744;23.174;2022-12-18T13:04:15;4.60;99.90
15700;DHT22;7950;42.744;23.174;2022-12-18T13:06:52;4.70;99.90
15700;DHT22;7950;42.744;23.174;2022-12-18T13:09:21;4.70;99.90
15700;DHT22;7950;42.744;23.174;2022-12-18T13:11:52;4.60;99.90
15700;DHT22;7950;42.744;23.174;2022-12-18T13:14:39;4.70;99.90
15700;DHT22;7950;42.744;23.174;2022-12-18T13:17:29;4.70;99.90
15700;DHT22;7950;42.744;23.174;2022-12-18T13:20:10;4.70;99.90
15700;DHT22;7950;42.744;23.174;2022-12-18T13:22:45;4.70;99.90
15700;DHT22;7950;42.744;23.174;2022-12-18T13:25:31;4.70;99.90
15700;DHT22;7950;42.744;23.174;2022-12-18T13:28:17;4.70;99.90
15700;DHT22;7950;42.744;23.174;2022-12-18T13:30:53;4.70;99.90
15700;DHT22;7950;42.744;23.174;2022-12-18T13:33:47;4.70;99.90
15700;DHT22;7950;42.744;23.174;2022-12-18T13:36:36;4.70;99.90
15700;DHT22;7950;42.744;23.174;2022-12-18T13:39:22;4.60;99.90
15700;DHT22;7950;42.744;23.174;2022-12-18T13:46:00;4.60;99.90
15700;DHT22;7950;42.744;23.174;2022-12-18T13:48:32;4.60;99.90
15700;DHT22;7950;42.744;23.174;2022-12-18T13:51:04;4.60;99.90
15700;DHT22;7950;42.744;23.174;2022-12-18T13:53:39;4.60;99.90
15700;DHT22;7950;42.744;23.174;2022-12-18T13:56:15;4.50;99.90
15700;DHT22;7950;42.744;23.174;2022-12-18T13:58:44;4.50;99.90
15700;DHT22;7950;42.744;23.174;2022-12-18T14:01:23;4.50;99.90
15700;DHT22;7950;42.744;23.174;2022-12-18T14:04:09;4.50;99.90
15700;DHT22;7950;42.744;23.174;2022-12-18T14:06:38;4.50;99.90
15700;DHT22;7950;42.744;23.174;2022-12-18T14:09:12;4.40;99.90
15700;DHT22;7950;42.744;23.174;2022-12-18T14:11:48;4.40;99.90
15700;DHT22;7950;42.744;23.174;2022-12-18T14:14:18;4.40;99.90
15700;DHT22;7950;42.744;23.174;2022-12-18T14:16:49;4.30;99.90
15700;DHT22;7950;42.744;23.174;2022-12-18T14:19:18;4.30;99.90
15700;DHT22;7950;42.744;23.174;2022-12-18T14:22:17;4.30;99.90
15700;DHT22;7950;42.744;23.174;2022-12-18T14:24:46;4.30;99.90
15700;DHT22;7950;42.744;23.174;2022-12-18T14:27:23;4.20;99.90
15700;DHT22;7950;42.744;23.174;2022-12-18T14:29:51;4.30;99.90
15700;DHT22;7950;42.744;23.174;2022-12-18T14:32:21;4.20;99.90
15700;DHT22;7950;42.744;23.174;2022-12-18T14:34:51;4.20;99.90
15700;DHT22;7950;42.744;23.174;2022-12-18T14:37:23;4.20;99.90
15700;DHT22;7950;42.744;23.174;2022-12-18T14:39:53;4.20;99.90
15700;DHT22;7950;42.744;23.174;2022-12-18T14:42:22;4.10;99.90
15700;DHT22;7950;42.744;23.174;2022-12-18T14:45:35;4.10;99.90
15700;DHT22;7950;42.744;23.174;2022-12-18T14:48:15;4.10;99.90
15700;DHT22;7950;42.744;23.174;2022-12-18T14:50:56;4.20;99.90
15700;DHT22;7950;42.744;23.174;2022-12-18T14:53:35;4.10;99.90
15700;DHT22;7950;42.744;23.174;2022-12-18T14:56:17;4.10;99.90
15700;DHT22;7950;42.744;23.174;2022-12-18T14:58:47;4.10;99.90
15700;DHT22;7950;42.744;23.174;2022-12-18T15:01:21;4.10;99.90
15700;DHT22;7950;42.744;23.174;2022-12-18T15:03:54;4.10;99.90
15700;DHT22;7950;42.744;23.174;2022-12-18T15:06:27;4.10;99.90
15700;DHT22;7950;42.744;23.174;2022-12-18T15:08:57;4.10;99.90
15700;DHT22;7950;42.744;23.174;2022-12-18T15:14:24;4.10;99.90
15700;DHT22;7950;42.744;23.174;2022-12-18T15:16:58;4.00;99.90
15700;DHT22;7950;42.744;23.174;2022-12-18T15:19:37;4.00;99.90
15700;DHT22;7950;42.744;23.174;2022-12-18T15:22:18;4.00;99.90
15700;DHT22;7950;42.744;23.174;2022-12-18T15:24:48;4.00;99.90
15700;DHT22;7950;42.744;23.174;2022-12-18T15:27:26;3.90;99.90
15700;DHT22;7950;42.744;23.174;2022-12-18T15:30:21;3.90;99.90
15700;DHT22;7950;42.744;23.174;2022-12-18T15:32:50;3.90;99.90
15700;DHT22;7950;42.744;23.174;2022-12-18T15:35:22;3.90;99.90
15700;DHT22;7950;42.744;23.174;2022-12-18T15:37:52;3.90;99.90
15700;DHT22;7950;42.744;23.174;2022-12-18T15:40:22;3.90;99.90
15700;DHT22;7950;42.744;23.174;2022-12-18T15:42:53;3.90;99.90
15700;DHT22;7950;42.744;23.174;2022-12-18T15:45:39;3.90;99.90
15700;DHT22;7950;42.744;23.174;2022-12-18T15:48:17;3.80;99.90
15700;DHT22;7950;42.744;23.174;2022-12-18T15:50:49;3.80;99.90
15700;DHT22;7950;42.744;23.174;2022-12-18T15:53:18;3.80;99.90
15700;DHT22;7950;42.744;23.174;2022-12-18T15:55:47;3.70;99.90
15700;DHT22;7950;42.744;23.174;2022-12-18T15:58:32;3.70;99.90
15700;DHT22;7950;42.744;23.174;2022-12-18T16:01:01;3.70;99.90
15700;DHT22;7950;42.744;23.174;2022-12-18T16:03:29;3.70;99.90
15700;DHT22;7950;42.744;23.174;2022-12-18T16:05:59;3.70;99.90
15700;DHT22;7950;42.744;23.174;2022-12-18T16:08:30;3.70;99.90
15700;DHT22;7950;42.744;23.174;2022-12-18T16:10:59;3.70;99.90
15700;DHT22;7950;42.744;23.174;2022-12-18T16:13:27;3.60;99.90
15700;DHT22;7950;42.744;23.174;2022-12-18T16:15:56;3.60;99.90
15700;DHT22;7950;42.744;23.174;2022-12-18T16:18:24;3.60;99.90
15700;DHT22;7950;42.744;23.174;2022-12-18T16:21:13;3.60;99.90
15700;DHT22;7950;42.744;23.174;2022-12-18T16:23:41;3.60;99.90
15700;DHT22;7950;42.744;23.174;2022-12-18T16:26:10;3.50;99.90
15700;DHT22;7950;42.744;23.174;2022-12-18T16:28:38;3.60;99.90
15700;DHT22;7950;42.744;23.174;2022-12-18T16:31:14;3.60;99.90
15700;DHT22;7950;42.744;23.174;2022-12-18T16:33:42;3.60;99.90
15700;DHT22;7950;42.744;23.174;2022-12-18T16:36:10;3.60;99.90
15700;DHT22;7950;42.744;23.174;2022-12-18T16:38:40;3.60;99.90
15700;DHT22;7950;42.744;23.174;2022-12-18T16:41:17;3.60;99.90
15700;DHT22;7950;42.744;23.174;2022-12-18T16:44:01;3.60;99.90